createdAt,value
2023-01-02T00:00:23.407Z,28.95
2023-01-02T00:03:26.084Z,28.83
2023-01-02T00:06:28.590Z,27.38
2023-01-02T00:09:31.055Z,29.23
2023-01-02T00:12:33.534Z,29.67
2023-01-02T00:15:36.208Z,30.33
2023-01-02T00:18:40.485Z,33.05
2023-01-02T00:21:44.787Z,27.98
2023-01-02T00:24:47.297Z,28.43
2023-01-02T00:27:49.858Z,30.57
2023-01-02T00:30:52.792Z,31.98
2023-01-02T00:33:55.308Z,31.70
2023-01-02T00:36:57.829Z,32.83
2023-01-02T00:40:00.401Z,35.20
2023-01-02T00:43:02.925Z,33.57
2023-01-02T00:46:11.224Z,32.40
2023-01-02T00:49:14.299Z,32.22
2023-01-02T00:52:16.797Z,30.75
2023-01-02T00:55:19.258Z,34.20
2023-01-02T00:58:21.769Z,30.57
2023-01-02T01:01:24.351Z,29.77
2023-01-02T01:04:27.149Z,30.05
2023-01-02T01:07:29.937Z,29.73
2023-01-02T01:10:35.419Z,31.50
2023-01-02T01:13:38.366Z,32.97
2023-01-02T01:16:41.913Z,33.75
2023-01-02T01:19:44.603Z,31.95
2023-01-02T01:22:47.768Z,32.42
2023-01-02T01:25:50.202Z,32.40
2023-01-02T01:28:54.378Z,33.23
2023-01-02T01:31:56.914Z,33.35
2023-01-02T01:34:59.485Z,33.95
2023-01-02T01:38:02.031Z,33.78
2023-01-02T01:41:06.074Z,35.47
2023-01-02T01:44:44.057Z,34.57
2023-01-02T01:47:55.222Z,33.53
2023-01-02T01:50:58.179Z,35.90
2023-01-02T01:54:07.565Z,33.72
2023-01-02T01:57:19.312Z,32.67
2023-01-02T02:00:21.878Z,34.17
2023-01-02T02:03:27.818Z,36.50
2023-01-02T02:06:30.370Z,33.97
2023-01-02T02:09:39.161Z,35.03
2023-01-02T02:12:41.713Z,36.97
2023-01-02T02:15:58.966Z,34.17
2023-01-02T02:19:17.892Z,35.95
2023-01-02T02:22:44.723Z,34.13
2023-01-02T02:26:25.944Z,36.45
2023-01-02T02:30:00.757Z,34.60
2023-01-02T02:33:03.205Z,34.80
2023-01-02T02:36:20.000Z,34.22
2023-01-02T02:39:26.960Z,32.83
2023-01-02T02:42:57.291Z,32.83
2023-01-02T02:46:36.632Z,31.87
2023-01-02T02:49:54.044Z,30.70
2023-01-02T02:53:04.502Z,30.83
2023-01-02T02:56:09.846Z,30.50
2023-01-02T02:59:12.723Z,28.77
2023-01-02T03:02:16.955Z,32.37
2023-01-02T03:05:35.177Z,32.07
2023-01-02T03:08:43.910Z,34.10
2023-01-02T03:12:08.606Z,31.50
2023-01-02T03:15:29.752Z,29.50
2023-01-02T03:18:45.854Z,30.50
2023-01-02T03:21:55.408Z,29.77
2023-01-02T03:24:59.254Z,33.53
2023-01-02T03:28:06.328Z,33.65
2023-01-02T03:31:11.652Z,33.03
2023-01-02T03:34:18.959Z,33.00
2023-01-02T03:37:29.196Z,31.70
2023-01-02T03:40:39.032Z,28.95
2023-01-02T03:43:44.201Z,30.42
2023-01-02T03:46:59.049Z,28.02
2023-01-02T03:50:09.909Z,25.67
2023-01-02T03:53:13.798Z,25.20
2023-01-02T03:56:22.129Z,28.50
2023-01-02T03:59:35.427Z,28.88
2023-01-02T04:02:37.956Z,29.25
2023-01-02T04:05:55.799Z,27.33
2023-01-02T04:09:22.428Z,28.67
2023-01-02T04:12:26.873Z,27.23
2023-01-02T04:15:33.887Z,25.15
2023-01-02T04:18:46.855Z,28.08
2023-01-02T04:21:53.470Z,28.80
2023-01-02T04:25:06.542Z,26.20
2023-01-02T04:28:30.383Z,28.17
2023-01-02T04:31:44.735Z,28.63
2023-01-02T04:34:48.855Z,24.65
2023-01-02T04:37:51.360Z,25.13
2023-01-02T04:40:55.035Z,24.20
2023-01-02T04:43:59.653Z,24.25
2023-01-02T04:47:02.090Z,25.92
2023-01-02T04:50:06.429Z,25.73
2023-01-02T04:53:10.804Z,24.93
2023-01-02T04:56:13.242Z,25.97
2023-01-02T04:59:15.783Z,23.95
2023-01-02T05:02:18.311Z,21.95
2023-01-02T05:05:20.775Z,22.85
2023-01-02T05:08:23.251Z,22.87
2023-01-02T05:11:25.788Z,22.97
2023-01-02T05:14:30.492Z,22.83
2023-01-02T05:17:39.977Z,20.58
2023-01-02T05:20:42.645Z,21.27
2023-01-02T05:23:50.729Z,22.67
2023-01-02T05:26:54.733Z,23.00
2023-01-02T05:29:57.239Z,21.13
2023-01-02T05:32:59.719Z,21.48
2023-01-02T05:36:05.685Z,22.27
2023-01-02T05:39:09.287Z,21.73
2023-01-02T05:42:11.810Z,21.83
2023-01-02T05:45:14.297Z,25.05
2023-01-02T05:48:16.826Z,25.35
2023-01-02T05:51:20.650Z,23.83
2023-01-02T05:54:23.115Z,25.43
2023-01-02T05:57:25.570Z,23.33
2023-01-02T06:00:28.950Z,23.90
2023-01-02T06:03:31.694Z,23.35
2023-01-02T06:06:40.408Z,24.40
2023-01-02T06:09:43.085Z,25.90
2023-01-02T06:12:45.595Z,24.07
2023-01-02T06:15:48.095Z,23.98
2023-01-02T06:18:51.501Z,22.52
2023-01-02T06:21:54.085Z,24.17
2023-01-02T06:24:56.548Z,24.43
2023-01-02T06:27:59.060Z,26.27
2023-01-02T06:31:10.330Z,26.88
2023-01-02T06:34:12.973Z,24.73
2023-01-02T06:37:15.504Z,24.90
2023-01-02T06:40:18.085Z,24.40
2023-01-02T06:43:21.070Z,22.60
2023-01-02T06:46:24.678Z,25.20
2023-01-02T06:49:27.256Z,23.67
2023-01-02T06:52:29.962Z,21.77
2023-01-02T06:55:32.432Z,22.63
2023-01-02T06:58:36.269Z,23.03
2023-01-02T07:01:39.013Z,22.95
2023-01-02T07:04:41.736Z,23.13
2023-01-02T07:07:44.247Z,21.38
2023-01-02T07:10:52.529Z,22.50
2023-01-02T07:13:55.499Z,20.83
2023-01-02T07:16:57.960Z,21.13
2023-01-02T07:20:02.566Z,22.08
2023-01-02T07:23:05.203Z,21.58
2023-01-02T07:26:08.511Z,21.00
2023-01-02T07:29:11.111Z,20.73
2023-01-02T07:32:13.728Z,21.88
2023-01-02T07:35:16.348Z,20.77
2023-01-02T07:38:18.884Z,20.35
2023-01-02T07:41:24.418Z,20.87
2023-01-02T07:44:26.958Z,21.60
2023-01-02T07:47:29.420Z,20.95
2023-01-02T07:50:35.789Z,20.70
2023-01-02T07:53:39.144Z,20.85
2023-01-02T07:56:41.741Z,21.50
2023-01-02T07:59:47.044Z,21.13
2023-01-02T08:02:55.076Z,20.55
2023-01-02T08:06:05.286Z,20.48
2023-01-02T08:09:08.082Z,21.30
2023-01-02T08:12:10.538Z,24.33
2023-01-02T08:15:13.079Z,26.30
2023-01-02T08:18:15.534Z,26.08
2023-01-02T08:21:18.338Z,25.60
2023-01-02T08:24:20.777Z,26.42
2023-01-02T08:27:23.261Z,25.33
2023-01-02T08:30:26.389Z,27.13
2023-01-02T08:33:28.978Z,26.27
2023-01-02T08:36:31.503Z,24.38
2023-01-02T08:39:34.042Z,27.80
2023-01-02T08:42:37.400Z,27.63
2023-01-02T08:45:39.891Z,21.37
2023-01-02T08:48:42.339Z,18.33
2023-01-02T08:51:45.302Z,20.80
2023-01-02T08:54:47.777Z,19.55
2023-01-02T08:57:50.308Z,17.67
2023-01-02T09:00:53.121Z,18.33
2023-01-02T09:03:56.095Z,20.75
2023-01-02T09:06:58.641Z,22.70
2023-01-02T09:10:01.344Z,22.73
2023-01-02T09:13:04.039Z,21.07
2023-01-02T09:16:07.439Z,23.20
2023-01-02T09:19:10.053Z,20.55
2023-01-02T09:22:12.596Z,19.35
2023-01-02T09:25:20.336Z,25.15
2023-01-02T09:28:27.748Z,19.33
2023-01-02T09:31:30.355Z,28.70
2023-01-02T09:34:32.840Z,22.02
2023-01-02T09:37:35.320Z,20.63
2023-01-02T09:40:52.349Z,19.83
2023-01-02T09:44:06.503Z,18.50
2023-01-02T09:47:16.031Z,20.37
2023-01-02T09:50:30.291Z,19.42
2023-01-02T09:53:34.025Z,19.83
2023-01-02T09:56:42.826Z,18.23
2023-01-02T10:00:06.549Z,18.70
2023-01-02T10:03:45.273Z,18.93
2023-01-02T10:06:55.487Z,20.98
2023-01-02T10:10:08.222Z,20.10
2023-01-02T10:16:59.472Z,18.70
2023-01-02T10:20:08.131Z,18.63
2023-01-02T10:23:21.731Z,18.75
2023-01-02T10:26:31.273Z,17.63
2023-01-02T10:29:40.145Z,19.73
2023-01-02T10:32:47.936Z,18.67
2023-01-02T10:36:36.512Z,16.50
2023-01-02T10:39:42.371Z,18.15
2023-01-02T10:42:45.452Z,17.50
2023-01-02T10:45:47.973Z,18.38
2023-01-02T10:48:52.391Z,20.33
2023-01-02T10:52:38.007Z,21.57
2023-01-02T10:55:44.295Z,27.85
2023-01-02T10:58:49.875Z,28.10
2023-01-02T11:01:58.134Z,25.10
2023-01-02T11:05:02.844Z,22.47
2023-01-02T11:08:16.334Z,20.10
2023-01-02T11:11:18.921Z,24.30
2023-01-02T11:14:31.212Z,22.70
2023-01-02T11:17:41.751Z,24.05
2023-01-02T11:20:51.159Z,23.33
2023-01-02T11:24:00.116Z,21.67
2023-01-02T11:27:03.077Z,20.50
2023-01-02T11:30:08.089Z,21.25
2023-01-02T11:33:15.271Z,24.17
2023-01-02T11:36:19.886Z,21.87
2023-01-02T11:39:23.967Z,22.43
2023-01-02T11:42:59.327Z,23.77
2023-01-02T11:46:06.866Z,25.42
2023-01-02T11:49:16.416Z,24.17
2023-01-02T11:52:28.111Z,25.60
2023-01-02T11:55:45.544Z,24.20
2023-01-02T11:58:47.945Z,24.63
2023-01-02T12:02:15.519Z,23.50
2023-01-02T12:05:23.851Z,23.55
2023-01-02T12:08:27.238Z,24.97
2023-01-02T12:11:35.513Z,26.93
2023-01-02T12:14:56.665Z,25.65
2023-01-02T12:18:26.068Z,24.83
2023-01-02T12:21:37.316Z,24.23
2023-01-02T12:24:57.750Z,23.03
2023-01-02T12:28:28.912Z,23.53
2023-01-02T12:31:46.505Z,22.42
2023-01-02T12:35:30.835Z,22.50
2023-01-02T12:39:09.987Z,25.17
2023-01-02T12:42:40.694Z,25.67
2023-01-02T12:46:13.998Z,23.33
2023-01-02T12:49:34.654Z,26.73
2023-01-02T12:52:52.010Z,26.90
2023-01-02T12:56:31.783Z,25.20
2023-01-02T12:59:37.062Z,22.40
2023-01-02T13:03:04.190Z,20.93
2023-01-02T13:06:43.932Z,23.48
2023-01-02T13:09:50.918Z,24.52
2023-01-02T13:12:56.860Z,24.65
2023-01-02T13:16:10.343Z,22.93
2023-01-02T13:19:56.893Z,26.93
2023-01-02T13:23:27.652Z,24.25
2023-01-02T13:26:31.744Z,21.33
2023-01-02T13:29:45.428Z,22.95
2023-01-02T13:32:48.202Z,24.20
2023-01-02T13:35:51.528Z,26.57
2023-01-02T13:39:01.917Z,22.75
2023-01-02T13:42:24.159Z,23.05
2023-01-02T13:45:28.840Z,22.38
2023-01-02T13:48:45.565Z,23.47
2023-01-02T13:51:48.990Z,24.03
2023-01-02T13:55:09.834Z,24.55
2023-01-02T13:58:21.147Z,20.10
2023-01-02T14:01:23.836Z,21.95
2023-01-02T14:04:27.796Z,21.83
2023-01-02T14:07:30.274Z,21.60
2023-01-02T14:10:38.523Z,21.73
2023-01-02T14:13:45.570Z,20.88
2023-01-02T14:16:47.976Z,21.33
2023-01-02T14:20:19.764Z,21.23
2023-01-02T14:23:33.666Z,20.17
2023-01-02T14:26:38.238Z,20.50
2023-01-02T14:30:03.009Z,19.67
2023-01-02T14:33:09.174Z,21.70
2023-01-02T14:36:12.469Z,24.30
2023-01-02T14:39:35.557Z,25.17
2023-01-02T14:42:57.817Z,23.85
2023-01-02T14:46:35.453Z,22.25
2023-01-02T14:49:38.904Z,24.58
2023-01-02T14:52:45.640Z,32.50
2023-01-02T14:55:52.917Z,30.13
2023-01-02T14:58:56.735Z,27.25
2023-01-02T15:02:06.815Z,28.33
2023-01-02T15:05:18.467Z,26.75
2023-01-02T15:08:33.036Z,29.03
2023-01-02T15:11:53.936Z,30.10
2023-01-02T15:14:56.992Z,26.83
2023-01-02T15:18:35.281Z,21.85
2023-01-02T15:21:39.871Z,28.77
2023-01-02T15:24:48.895Z,29.37
2023-01-02T15:27:54.612Z,26.57
2023-01-02T15:31:12.504Z,27.65
2023-01-02T15:34:24.719Z,25.45
2023-01-02T15:37:27.245Z,26.17
2023-01-02T15:40:33.779Z,33.90
2023-01-02T15:43:57.622Z,28.80
2023-01-02T15:47:00.876Z,27.10
2023-01-02T15:50:10.862Z,28.77
2023-01-02T15:53:26.812Z,26.67
2023-01-02T15:56:37.341Z,27.00
2023-01-02T15:59:40.028Z,30.00
2023-01-02T16:02:44.628Z,32.50
2023-01-02T16:05:57.652Z,39.03
2023-01-02T16:09:03.718Z,36.53
2023-01-02T16:12:06.723Z,35.57
2023-01-02T16:15:09.619Z,33.73
2023-01-02T16:18:13.170Z,38.17
2023-01-02T16:21:17.207Z,37.17
2023-01-02T16:24:23.522Z,35.20
2023-01-02T16:27:30.692Z,37.37
2023-01-02T16:30:40.875Z,39.13
2023-01-02T16:33:45.848Z,33.75
2023-01-02T16:36:48.454Z,49.83
2023-01-02T16:39:51.014Z,76.13
2023-01-02T16:43:02.715Z,51.87
2023-01-02T16:46:11.268Z,34.50
2023-01-02T16:49:16.989Z,36.95
2023-01-02T16:52:19.579Z,34.72
2023-01-02T16:55:23.878Z,34.75
2023-01-02T16:58:27.148Z,52.57
2023-01-02T17:01:29.823Z,38.10
2023-01-02T17:04:32.446Z,36.15
2023-01-02T17:07:34.902Z,43.47
2023-01-02T17:10:42.114Z,44.50
2023-01-02T17:13:44.983Z,38.77
2023-01-02T17:16:47.406Z,35.90
2023-01-02T17:19:49.980Z,36.38
2023-01-02T17:22:52.467Z,36.92
2023-01-02T17:25:54.988Z,40.47
2023-01-02T17:28:57.536Z,49.93
2023-01-02T17:32:00.152Z,33.23
2023-01-02T17:35:03.250Z,43.63
2023-01-02T17:38:05.920Z,35.83
2023-01-02T17:41:08.996Z,32.15
2023-01-02T17:44:11.422Z,35.40
2023-01-02T17:47:57.239Z,38.53
2023-01-02T17:50:36.818Z,37.40
2023-01-02T17:53:42.487Z,41.65
2023-01-02T17:56:44.986Z,37.75
2023-01-02T17:59:47.544Z,38.23
2023-01-02T18:02:52.160Z,38.50
2023-01-02T18:05:54.814Z,33.83
2023-01-02T18:08:57.350Z,35.47
2023-01-02T18:11:59.847Z,45.70
2023-01-02T18:15:10.639Z,45.80
2023-01-02T18:18:14.676Z,40.70
2023-01-02T18:21:22.047Z,41.08
2023-01-02T18:24:32.199Z,39.33
2023-01-02T18:27:35.566Z,36.90
2023-01-02T18:30:38.247Z,36.53
2023-01-02T18:33:42.880Z,38.47
2023-01-02T18:36:46.169Z,37.40
2023-01-02T18:39:50.129Z,36.35
2023-01-02T18:42:55.569Z,42.00
2023-01-02T18:46:00.524Z,45.83
2023-01-02T18:49:25.134Z,43.57
2023-01-02T18:52:30.555Z,49.97
2023-01-02T18:55:40.149Z,44.72
2023-01-02T18:58:47.243Z,47.88
2023-01-02T19:01:51.829Z,63.90
2023-01-02T19:04:56.059Z,66.27
2023-01-02T19:08:13.997Z,51.50
2023-01-02T19:11:37.830Z,41.90
2023-01-02T19:14:42.954Z,39.03
2023-01-02T19:17:45.488Z,46.80
2023-01-02T19:21:09.762Z,42.03
2023-01-02T19:24:22.164Z,39.45
2023-01-02T19:27:26.054Z,37.97
2023-01-02T19:30:35.782Z,36.33
2023-01-02T19:33:41.901Z,37.60
2023-01-02T19:36:45.329Z,35.93
2023-01-02T19:39:56.306Z,38.10
2023-01-02T19:43:00.001Z,40.22
2023-01-02T19:46:02.722Z,39.00
2023-01-02T19:49:05.203Z,38.13
2023-01-02T19:52:10.179Z,40.23
2023-01-02T19:55:14.354Z,41.90
2023-01-02T19:58:17.510Z,42.20
2023-01-02T20:01:22.309Z,41.70
2023-01-02T20:04:25.083Z,45.00
2023-01-02T20:07:27.586Z,41.93
2023-01-02T20:10:30.071Z,39.90
2023-01-02T20:13:32.625Z,44.30
2023-01-02T20:16:36.210Z,44.55
2023-01-02T20:19:39.213Z,45.60
2023-01-02T20:22:43.564Z,44.47
2023-01-02T20:25:47.129Z,44.05
2023-01-02T20:28:49.591Z,42.38
2023-01-02T20:31:52.599Z,44.10
2023-01-02T20:34:55.200Z,47.03
2023-01-02T20:37:57.958Z,46.23
2023-01-02T20:41:00.701Z,44.00
2023-01-02T20:44:03.448Z,44.78
2023-01-02T20:47:06.198Z,42.30
2023-01-02T20:50:09.348Z,44.13
2023-01-02T20:53:12.082Z,44.67
2023-01-02T20:56:15.079Z,45.35
2023-01-02T20:59:18.076Z,42.55
2023-01-02T21:02:21.019Z,39.28
2023-01-02T21:05:24.300Z,39.80
2023-01-02T21:08:28.675Z,40.80
2023-01-02T21:11:31.666Z,38.35
2023-01-02T21:14:37.759Z,39.83
2023-01-02T21:17:40.885Z,37.80
2023-01-02T21:20:47.517Z,39.80
2023-01-02T21:23:50.277Z,38.20
2023-01-02T21:26:53.025Z,37.95
2023-01-02T21:29:55.830Z,39.13
2023-01-02T21:32:58.524Z,36.13
2023-01-02T21:36:02.945Z,36.60
2023-01-02T21:39:05.561Z,37.97
2023-01-02T21:42:16.620Z,35.55
2023-01-02T21:45:19.109Z,37.53
2023-01-02T21:48:21.739Z,37.75
2023-01-02T21:51:27.639Z,38.73
2023-01-02T21:54:33.526Z,37.60
2023-01-02T21:58:11.859Z,37.47
2023-01-02T22:00:58.837Z,39.05
2023-01-02T22:04:01.513Z,38.38
2023-01-02T22:07:31.065Z,37.63
2023-01-02T22:10:37.629Z,36.77
2023-01-02T22:13:40.165Z,39.38
2023-01-02T22:16:43.977Z,39.55
2023-01-02T22:19:46.497Z,43.15
2023-01-02T22:22:49.676Z,38.53
2023-01-02T22:25:52.161Z,39.67
2023-01-02T22:28:58.141Z,41.78
2023-01-02T22:32:03.717Z,38.55
2023-01-02T22:35:07.883Z,39.65
2023-01-02T22:38:10.384Z,38.33
2023-01-02T22:41:13.081Z,38.17
2023-01-02T22:44:23.821Z,40.92
2023-01-02T22:47:30.027Z,42.85
2023-01-02T22:50:41.564Z,41.67
2023-01-02T22:53:44.055Z,43.93
2023-01-02T22:56:46.835Z,43.73
2023-01-02T22:59:49.403Z,47.45
2023-01-02T23:02:52.237Z,48.42
2023-01-02T23:05:54.775Z,48.63
2023-01-02T23:08:57.284Z,48.80
2023-01-02T23:11:59.942Z,48.83
2023-01-02T23:15:02.662Z,50.90
2023-01-02T23:18:24.065Z,47.53
2023-01-02T23:21:27.946Z,43.03
2023-01-02T23:24:36.330Z,47.50
2023-01-02T23:27:38.834Z,50.93
2023-01-02T23:30:41.455Z,48.17
2023-01-02T23:33:43.970Z,53.70
2023-01-02T23:36:46.903Z,50.90
2023-01-02T23:39:49.469Z,52.73
2023-01-02T23:42:52.088Z,53.23
2023-01-02T23:45:54.685Z,54.53
2023-01-02T23:48:57.311Z,51.42
2023-01-02T23:52:00.143Z,55.75
2023-01-02T23:55:02.791Z,55.63
2023-01-02T23:58:05.441Z,51.20
